sensor_id;sensor_type;location;lat;lon;timestamp;P1;durP1;ratioP1;P2;durP2;ratioP2
38399;SDS011;24180;42.676;23.320;2023-07-31T00:01:04;8.87;;;8.37;;
38399;SDS011;24180;42.676;23.320;2023-07-31T00:03:30;9.25;;;8.65;;
38399;SDS011;24180;42.676;23.320;2023-07-31T00:05:55;7.70;;;7.10;;
38399;SDS011;24180;42.676;23.320;2023-07-31T00:08:21;6.93;;;6.53;;
38399;SDS011;24180;42.676;23.320;2023-07-31T00:10:47;6.10;;;5.70;;
38399;SDS011;24180;42.676;23.320;2023-07-31T00:13:12;7.30;;;6.83;;
38399;SDS011;24180;42.676;23.320;2023-07-31T00:15:37;8.97;;;8.40;;
38399;SDS011;24180;42.676;23.320;2023-07-31T00:18:03;10.43;;;9.83;;
38399;SDS011;24180;42.676;23.320;2023-07-31T00:20:28;9.80;;;9.20;;
38399;SDS011;24180;42.676;23.320;2023-07-31T00:22:54;12.90;;;12.10;;
38399;SDS011;24180;42.676;23.320;2023-07-31T00:25:19;12.20;;;11.50;;
38399;SDS011;24180;42.676;23.320;2023-07-31T00:27:45;10.90;;;10.27;;
38399;SDS011;24180;42.676;23.320;2023-07-31T00:30:11;10.73;;;9.83;;
38399;SDS011;24180;42.676;23.320;2023-07-31T00:32:37;20.50;;;19.30;;
38399;SDS011;24180;42.676;23.320;2023-07-31T00:35:02;19.80;;;18.77;;
38399;SDS011;24180;42.676;23.320;2023-07-31T00:37:28;35.13;;;33.13;;
38399;SDS011;24180;42.676;23.320;2023-07-31T00:39:53;33.60;;;31.70;;
38399;SDS011;24180;42.676;23.320;2023-07-31T00:42:19;36.33;;;34.37;;
38399;SDS011;24180;42.676;23.320;2023-07-31T00:44:44;29.50;;;27.87;;
38399;SDS011;24180;42.676;23.320;2023-07-31T00:47:09;36.27;;;34.30;;
38399;SDS011;24180;42.676;23.320;2023-07-31T00:49:35;20.87;;;19.67;;
38399;SDS011;24180;42.676;23.320;2023-07-31T00:52:00;32.27;;;30.47;;
38399;SDS011;24180;42.676;23.320;2023-07-31T00:54:28;32.40;;;30.57;;
38399;SDS011;24180;42.676;23.320;2023-07-31T00:56:54;31.27;;;29.57;;
38399;SDS011;24180;42.676;23.320;2023-07-31T00:59:20;26.60;;;25.07;;
38399;SDS011;24180;42.676;23.320;2023-07-31T01:01:45;34.07;;;31.97;;
38399;SDS011;24180;42.676;23.320;2023-07-31T01:04:11;29.57;;;27.87;;
38399;SDS011;24180;42.676;23.320;2023-07-31T01:06:40;31.10;;;29.30;;
38399;SDS011;24180;42.676;23.320;2023-07-31T01:11:57;25.73;;;24.13;;
38399;SDS011;24180;42.676;23.320;2023-07-31T01:14:26;31.50;;;29.60;;
38399;SDS011;24180;42.676;23.320;2023-07-31T01:16:52;29.73;;;27.93;;
38399;SDS011;24180;42.676;23.320;2023-07-31T01:19:18;33.80;;;31.70;;
38399;SDS011;24180;42.676;23.320;2023-07-31T01:24:29;32.73;;;30.43;;
38399;SDS011;24180;42.676;23.320;2023-07-31T01:27:14;31.17;;;29.03;;
38399;SDS011;24180;42.676;23.320;2023-07-31T01:32:35;29.87;;;27.80;;
38399;SDS011;24180;42.676;23.320;2023-07-31T01:35:04;30.77;;;28.67;;
38399;SDS011;24180;42.676;23.320;2023-07-31T01:37:29;27.27;;;25.10;;
38399;SDS011;24180;42.676;23.320;2023-07-31T01:39:55;32.67;;;30.20;;
38399;SDS011;24180;42.676;23.320;2023-07-31T01:42:20;32.77;;;30.37;;
38399;SDS011;24180;42.676;23.320;2023-07-31T01:44:46;34.33;;;31.73;;
38399;SDS011;24180;42.676;23.320;2023-07-31T01:47:11;38.07;;;35.37;;
38399;SDS011;24180;42.676;23.320;2023-07-31T01:49:36;37.13;;;34.33;;
38399;SDS011;24180;42.676;23.320;2023-07-31T01:52:02;38.47;;;35.53;;
38399;SDS011;24180;42.676;23.320;2023-07-31T01:54:27;33.07;;;30.37;;
38399;SDS011;24180;42.676;23.320;2023-07-31T01:56:53;41.93;;;38.83;;
38399;SDS011;24180;42.676;23.320;2023-07-31T01:59:18;40.73;;;37.57;;
38399;SDS011;24180;42.676;23.320;2023-07-31T02:01:44;46.03;;;42.60;;
38399;SDS011;24180;42.676;23.320;2023-07-31T02:04:09;34.20;;;31.37;;
38399;SDS011;24180;42.676;23.320;2023-07-31T02:06:34;40.90;;;37.80;;
38399;SDS011;24180;42.676;23.320;2023-07-31T02:09:00;35.00;;;31.93;;
38399;SDS011;24180;42.676;23.320;2023-07-31T02:11:25;32.33;;;29.73;;
38399;SDS011;24180;42.676;23.320;2023-07-31T02:13:51;39.13;;;35.90;;
38399;SDS011;24180;42.676;23.320;2023-07-31T02:16:16;32.90;;;30.30;;
38399;SDS011;24180;42.676;23.320;2023-07-31T02:18:41;34.13;;;31.40;;
38399;SDS011;24180;42.676;23.320;2023-07-31T02:21:07;34.10;;;31.30;;
38399;SDS011;24180;42.676;23.320;2023-07-31T02:23:32;32.20;;;29.50;;
38399;SDS011;24180;42.676;23.320;2023-07-31T02:25:58;31.13;;;28.37;;
38399;SDS011;24180;42.676;23.320;2023-07-31T02:28:23;31.40;;;28.80;;
38399;SDS011;24180;42.676;23.320;2023-07-31T02:30:49;31.23;;;28.60;;
38399;SDS011;24180;42.676;23.320;2023-07-31T02:33:15;29.10;;;26.77;;
38399;SDS011;24180;42.676;23.320;2023-07-31T02:35:41;29.20;;;26.67;;
38399;SDS011;24180;42.676;23.320;2023-07-31T02:38:06;26.50;;;24.07;;
38399;SDS011;24180;42.676;23.320;2023-07-31T02:40:32;27.50;;;25.00;;
38399;SDS011;24180;42.676;23.320;2023-07-31T02:42:57;27.73;;;25.17;;
38399;SDS011;24180;42.676;23.320;2023-07-31T02:45:23;29.73;;;27.13;;
38399;SDS011;24180;42.676;23.320;2023-07-31T02:47:48;24.93;;;22.73;;
38399;SDS011;24180;42.676;23.320;2023-07-31T02:50:13;26.67;;;24.17;;
38399;SDS011;24180;42.676;23.320;2023-07-31T02:52:39;26.30;;;23.60;;
38399;SDS011;24180;42.676;23.320;2023-07-31T02:55:05;24.40;;;22.17;;
38399;SDS011;24180;42.676;23.320;2023-07-31T02:57:31;24.40;;;21.87;;
38399;SDS011;24180;42.676;23.320;2023-07-31T02:59:56;24.93;;;22.63;;
38399;SDS011;24180;42.676;23.320;2023-07-31T03:02:22;24.10;;;21.80;;
38399;SDS011;24180;42.676;23.320;2023-07-31T03:04:47;23.60;;;21.40;;
38399;SDS011;24180;42.676;23.320;2023-07-31T03:07:13;23.73;;;21.63;;
38399;SDS011;24180;42.676;23.320;2023-07-31T03:09:38;25.10;;;22.67;;
38399;SDS011;24180;42.676;23.320;2023-07-31T03:12:04;23.40;;;21.20;;
38399;SDS011;24180;42.676;23.320;2023-07-31T03:14:29;24.90;;;22.43;;
38399;SDS011;24180;42.676;23.320;2023-07-31T03:16:55;24.47;;;21.87;;
38399;SDS011;24180;42.676;23.320;2023-07-31T03:19:20;25.53;;;23.27;;
38399;SDS011;24180;42.676;23.320;2023-07-31T03:21:46;26.00;;;23.57;;
38399;SDS011;24180;42.676;23.320;2023-07-31T03:24:11;24.40;;;22.10;;
38399;SDS011;24180;42.676;23.320;2023-07-31T03:26:39;24.10;;;21.70;;
38399;SDS011;24180;42.676;23.320;2023-07-31T03:29:06;23.87;;;21.63;;
38399;SDS011;24180;42.676;23.320;2023-07-31T03:31:32;25.90;;;23.47;;
38399;SDS011;24180;42.676;23.320;2023-07-31T03:33:58;24.87;;;22.67;;
38399;SDS011;24180;42.676;23.320;2023-07-31T03:36:23;25.03;;;22.53;;
38399;SDS011;24180;42.676;23.320;2023-07-31T03:38:48;23.20;;;20.80;;
38399;SDS011;24180;42.676;23.320;2023-07-31T03:41:14;26.10;;;23.60;;
38399;SDS011;24180;42.676;23.320;2023-07-31T03:43:39;25.67;;;23.17;;
38399;SDS011;24180;42.676;23.320;2023-07-31T03:46:05;25.73;;;23.13;;
38399;SDS011;24180;42.676;23.320;2023-07-31T03:48:30;24.30;;;21.73;;
38399;SDS011;24180;42.676;23.320;2023-07-31T03:50:55;26.33;;;23.83;;
38399;SDS011;24180;42.676;23.320;2023-07-31T03:53:21;26.00;;;23.33;;
38399;SDS011;24180;42.676;23.320;2023-07-31T03:55:46;28.07;;;25.03;;
38399;SDS011;24180;42.676;23.320;2023-07-31T03:58:12;25.50;;;22.87;;
38399;SDS011;24180;42.676;23.320;2023-07-31T04:00:37;25.37;;;22.90;;
38399;SDS011;24180;42.676;23.320;2023-07-31T04:03:04;23.73;;;21.00;;
38399;SDS011;24180;42.676;23.320;2023-07-31T04:05:31;24.30;;;21.80;;
38399;SDS011;24180;42.676;23.320;2023-07-31T04:07:57;24.67;;;22.17;;
38399;SDS011;24180;42.676;23.320;2023-07-31T04:10:23;26.37;;;23.67;;
38399;SDS011;24180;42.676;23.320;2023-07-31T04:12:48;25.43;;;22.73;;
38399;SDS011;24180;42.676;23.320;2023-07-31T04:15:14;22.93;;;20.40;;
38399;SDS011;24180;42.676;23.320;2023-07-31T04:17:39;26.10;;;23.50;;
38399;SDS011;24180;42.676;23.320;2023-07-31T04:20:05;24.73;;;22.27;;
38399;SDS011;24180;42.676;23.320;2023-07-31T04:22:30;28.23;;;25.33;;
38399;SDS011;24180;42.676;23.320;2023-07-31T04:24:56;25.87;;;23.13;;
38399;SDS011;24180;42.676;23.320;2023-07-31T04:27:21;25.20;;;22.53;;
38399;SDS011;24180;42.676;23.320;2023-07-31T04:29:47;29.73;;;24.17;;
38399;SDS011;24180;42.676;23.320;2023-07-31T04:32:12;26.03;;;23.37;;
38399;SDS011;24180;42.676;23.320;2023-07-31T04:34:38;25.80;;;23.07;;
38399;SDS011;24180;42.676;23.320;2023-07-31T04:37:03;26.23;;;23.43;;
38399;SDS011;24180;42.676;23.320;2023-07-31T04:39:29;25.70;;;22.90;;
38399;SDS011;24180;42.676;23.320;2023-07-31T04:41:54;26.67;;;23.90;;
38399;SDS011;24180;42.676;23.320;2023-07-31T04:44:20;26.67;;;23.97;;
38399;SDS011;24180;42.676;23.320;2023-07-31T04:46:45;26.30;;;23.37;;
38399;SDS011;24180;42.676;23.320;2023-07-31T04:49:11;23.67;;;21.23;;
38399;SDS011;24180;42.676;23.320;2023-07-31T04:51:36;23.37;;;20.77;;
38399;SDS011;24180;42.676;23.320;2023-07-31T04:54:02;25.57;;;22.97;;
38399;SDS011;24180;42.676;23.320;2023-07-31T04:56:27;21.47;;;19.30;;
38399;SDS011;24180;42.676;23.320;2023-07-31T04:58:53;23.57;;;21.13;;
38399;SDS011;24180;42.676;23.320;2023-07-31T05:01:18;23.97;;;21.67;;
38399;SDS011;24180;42.676;23.320;2023-07-31T05:03:44;24.40;;;22.00;;
38399;SDS011;24180;42.676;23.320;2023-07-31T05:06:09;24.23;;;21.70;;
38399;SDS011;24180;42.676;23.320;2023-07-31T05:08:35;24.07;;;21.87;;
38399;SDS011;24180;42.676;23.320;2023-07-31T05:11:00;24.83;;;22.40;;
38399;SDS011;24180;42.676;23.320;2023-07-31T05:13:25;22.63;;;20.43;;
38399;SDS011;24180;42.676;23.320;2023-07-31T05:15:51;24.37;;;22.07;;
38399;SDS011;24180;42.676;23.320;2023-07-31T05:18:16;21.37;;;19.00;;
38399;SDS011;24180;42.676;23.320;2023-07-31T05:20:42;23.40;;;21.30;;
38399;SDS011;24180;42.676;23.320;2023-07-31T05:23:07;20.87;;;18.87;;
38399;SDS011;24180;42.676;23.320;2023-07-31T05:25:32;20.33;;;18.43;;
38399;SDS011;24180;42.676;23.320;2023-07-31T05:27:58;19.97;;;17.97;;
38399;SDS011;24180;42.676;23.320;2023-07-31T05:30:23;18.73;;;17.05;;
38399;SDS011;24180;42.676;23.320;2023-07-31T05:32:49;18.17;;;16.47;;
38399;SDS011;24180;42.676;23.320;2023-07-31T05:35:14;20.37;;;18.67;;
38399;SDS011;24180;42.676;23.320;2023-07-31T05:37:40;17.77;;;16.07;;
38399;SDS011;24180;42.676;23.320;2023-07-31T05:40:05;17.67;;;15.80;;
38399;SDS011;24180;42.676;23.320;2023-07-31T05:42:31;16.30;;;14.80;;
38399;SDS011;24180;42.676;23.320;2023-07-31T05:44:56;16.77;;;15.38;;
38399;SDS011;24180;42.676;23.320;2023-07-31T05:47:22;13.80;;;12.60;;
38399;SDS011;24180;42.676;23.320;2023-07-31T05:49:48;13.00;;;11.77;;
38399;SDS011;24180;42.676;23.320;2023-07-31T05:52:14;13.13;;;12.03;;
38399;SDS011;24180;42.676;23.320;2023-07-31T05:54:41;14.30;;;13.00;;
38399;SDS011;24180;42.676;23.320;2023-07-31T05:57:07;14.67;;;13.33;;
38399;SDS011;24180;42.676;23.320;2023-07-31T05:59:32;13.07;;;11.97;;
38399;SDS011;24180;42.676;23.320;2023-07-31T06:01:58;13.10;;;11.87;;
38399;SDS011;24180;42.676;23.320;2023-07-31T06:04:23;12.43;;;11.33;;
38399;SDS011;24180;42.676;23.320;2023-07-31T06:06:50;11.63;;;10.70;;
38399;SDS011;24180;42.676;23.320;2023-07-31T06:09:16;10.63;;;9.83;;
38399;SDS011;24180;42.676;23.320;2023-07-31T06:11:41;8.20;;;7.50;;
38399;SDS011;24180;42.676;23.320;2023-07-31T06:14:07;9.30;;;8.60;;
38399;SDS011;24180;42.676;23.320;2023-07-31T06:16:32;7.50;;;6.90;;
38399;SDS011;24180;42.676;23.320;2023-07-31T06:18:58;7.47;;;6.87;;
38399;SDS011;24180;42.676;23.320;2023-07-31T06:21:23;7.50;;;6.90;;
38399;SDS011;24180;42.676;23.320;2023-07-31T06:23:48;9.50;;;8.80;;
38399;SDS011;24180;42.676;23.320;2023-07-31T06:26:14;7.65;;;7.05;;
38399;SDS011;24180;42.676;23.320;2023-07-31T06:28:39;6.75;;;6.13;;
38399;SDS011;24180;42.676;23.320;2023-07-31T06:31:05;6.50;;;6.00;;
38399;SDS011;24180;42.676;23.320;2023-07-31T06:33:30;6.78;;;6.28;;
38399;SDS011;24180;42.676;23.320;2023-07-31T06:35:56;6.55;;;6.05;;
38399;SDS011;24180;42.676;23.320;2023-07-31T06:38:24;6.60;;;6.10;;
38399;SDS011;24180;42.676;23.320;2023-07-31T06:40:51;7.75;;;6.18;;
38399;SDS011;24180;42.676;23.320;2023-07-31T06:43:16;6.72;;;6.13;;
38399;SDS011;24180;42.676;23.320;2023-07-31T06:45:42;6.45;;;5.90;;
38399;SDS011;24180;42.676;23.320;2023-07-31T06:48:07;8.43;;;7.82;;
38399;SDS011;24180;42.676;23.320;2023-07-31T06:50:33;5.97;;;5.55;;
38399;SDS011;24180;42.676;23.320;2023-07-31T06:52:58;6.18;;;5.68;;
38399;SDS011;24180;42.676;23.320;2023-07-31T06:55:24;5.75;;;5.25;;
38399;SDS011;24180;42.676;23.320;2023-07-31T06:57:51;6.10;;;5.50;;
38399;SDS011;24180;42.676;23.320;2023-07-31T07:00:18;5.68;;;5.28;;
38399;SDS011;24180;42.676;23.320;2023-07-31T07:02:45;5.38;;;4.88;;
38399;SDS011;24180;42.676;23.320;2023-07-31T07:05:14;6.05;;;5.55;;
38399;SDS011;24180;42.676;23.320;2023-07-31T07:07:40;5.97;;;5.57;;
38399;SDS011;24180;42.676;23.320;2023-07-31T07:10:06;7.05;;;6.22;;
38399;SDS011;24180;42.676;23.320;2023-07-31T07:12:32;6.22;;;5.47;;
38399;SDS011;24180;42.676;23.320;2023-07-31T07:14:58;5.43;;;5.00;;
38399;SDS011;24180;42.676;23.320;2023-07-31T07:17:24;6.60;;;6.15;;
38399;SDS011;24180;42.676;23.320;2023-07-31T07:19:51;7.05;;;6.45;;
38399;SDS011;24180;42.676;23.320;2023-07-31T07:22:16;7.50;;;7.00;;
38399;SDS011;24180;42.676;23.320;2023-07-31T07:24:42;5.17;;;4.67;;
38399;SDS011;24180;42.676;23.320;2023-07-31T07:27:07;4.70;;;4.30;;
38399;SDS011;24180;42.676;23.320;2023-07-31T07:29:37;5.20;;;4.80;;
38399;SDS011;24180;42.676;23.320;2023-07-31T07:32:03;5.60;;;5.20;;
38399;SDS011;24180;42.676;23.320;2023-07-31T07:34:29;5.55;;;5.15;;
38399;SDS011;24180;42.676;23.320;2023-07-31T07:36:54;6.03;;;5.60;;
38399;SDS011;24180;42.676;23.320;2023-07-31T07:39:20;9.40;;;8.80;;
38399;SDS011;24180;42.676;23.320;2023-07-31T07:41:46;7.95;;;7.35;;
38399;SDS011;24180;42.676;23.320;2023-07-31T07:44:12;5.70;;;5.30;;
38399;SDS011;24180;42.676;23.320;2023-07-31T07:46:38;6.55;;;6.15;;
38399;SDS011;24180;42.676;23.320;2023-07-31T07:49:03;5.85;;;5.35;;
38399;SDS011;24180;42.676;23.320;2023-07-31T07:51:29;6.10;;;5.60;;
38399;SDS011;24180;42.676;23.320;2023-07-31T07:53:56;5.38;;;4.90;;
38399;SDS011;24180;42.676;23.320;2023-07-31T07:56:22;7.43;;;6.40;;
38399;SDS011;24180;42.676;23.320;2023-07-31T07:58:49;4.30;;;3.90;;
38399;SDS011;24180;42.676;23.320;2023-07-31T08:01:15;4.75;;;4.35;;
38399;SDS011;24180;42.676;23.320;2023-07-31T08:03:40;4.70;;;4.40;;
38399;SDS011;24180;42.676;23.320;2023-07-31T08:06:06;4.93;;;4.63;;
38399;SDS011;24180;42.676;23.320;2023-07-31T08:08:34;5.40;;;4.63;;
38399;SDS011;24180;42.676;23.320;2023-07-31T08:10:59;6.18;;;5.22;;
38399;SDS011;24180;42.676;23.320;2023-07-31T08:13:25;6.38;;;5.40;;
38399;SDS011;24180;42.676;23.320;2023-07-31T08:15:50;4.97;;;4.57;;
38399;SDS011;24180;42.676;23.320;2023-07-31T08:18:15;4.95;;;4.60;;
38399;SDS011;24180;42.676;23.320;2023-07-31T08:20:42;4.65;;;4.30;;
38399;SDS011;24180;42.676;23.320;2023-07-31T08:23:07;5.95;;;5.65;;
38399;SDS011;24180;42.676;23.320;2023-07-31T08:25:34;7.93;;;4.60;;
38399;SDS011;24180;42.676;23.320;2023-07-31T08:28:00;5.10;;;4.60;;
38399;SDS011;24180;42.676;23.320;2023-07-31T08:30:26;5.07;;;4.78;;
38399;SDS011;24180;42.676;23.320;2023-07-31T08:32:52;5.32;;;4.85;;
38399;SDS011;24180;42.676;23.320;2023-07-31T08:35:17;5.68;;;5.18;;
38399;SDS011;24180;42.676;23.320;2023-07-31T08:37:43;4.70;;;4.22;;
38399;SDS011;24180;42.676;23.320;2023-07-31T08:40:08;6.65;;;4.70;;
38399;SDS011;24180;42.676;23.320;2023-07-31T08:42:41;4.95;;;4.55;;
38399;SDS011;24180;42.676;23.320;2023-07-31T08:45:08;4.93;;;4.53;;
38399;SDS011;24180;42.676;23.320;2023-07-31T08:47:36;4.57;;;4.28;;
38399;SDS011;24180;42.676;23.320;2023-07-31T08:50:02;4.88;;;4.47;;
38399;SDS011;24180;42.676;23.320;2023-07-31T08:52:29;5.18;;;4.88;;
38399;SDS011;24180;42.676;23.320;2023-07-31T08:54:54;6.47;;;5.85;;
38399;SDS011;24180;42.676;23.320;2023-07-31T08:57:20;4.80;;;4.50;;
38399;SDS011;24180;42.676;23.320;2023-07-31T08:59:45;6.20;;;5.00;;
38399;SDS011;24180;42.676;23.320;2023-07-31T09:02:11;4.78;;;4.47;;
38399;SDS011;24180;42.676;23.320;2023-07-31T09:04:39;6.03;;;4.63;;
38399;SDS011;24180;42.676;23.320;2023-07-31T09:07:23;5.20;;;4.70;;
38399;SDS011;24180;42.676;23.320;2023-07-31T09:09:49;4.63;;;4.07;;
38399;SDS011;24180;42.676;23.320;2023-07-31T09:12:15;4.50;;;4.15;;
38399;SDS011;24180;42.676;23.320;2023-07-31T09:14:41;4.60;;;4.22;;
38399;SDS011;24180;42.676;23.320;2023-07-31T09:17:09;4.57;;;4.07;;
38399;SDS011;24180;42.676;23.320;2023-07-31T09:19:35;4.43;;;4.13;;
38399;SDS011;24180;42.676;23.320;2023-07-31T09:22:06;4.47;;;4.18;;
38399;SDS011;24180;42.676;23.320;2023-07-31T09:24:32;4.78;;;4.38;;
38399;SDS011;24180;42.676;23.320;2023-07-31T09:26:59;5.28;;;4.85;;
38399;SDS011;24180;42.676;23.320;2023-07-31T09:29:26;6.45;;;4.82;;
38399;SDS011;24180;42.676;23.320;2023-07-31T09:31:53;7.22;;;6.75;;
38399;SDS011;24180;42.676;23.320;2023-07-31T09:34:20;7.40;;;6.85;;
38399;SDS011;24180;42.676;23.320;2023-07-31T09:36:53;6.13;;;5.72;;
38399;SDS011;24180;42.676;23.320;2023-07-31T09:39:18;6.47;;;5.88;;
38399;SDS011;24180;42.676;23.320;2023-07-31T09:41:46;6.20;;;5.70;;
38399;SDS011;24180;42.676;23.320;2023-07-31T09:44:18;4.95;;;4.65;;
38399;SDS011;24180;42.676;23.320;2023-07-31T09:46:43;5.28;;;4.78;;
38399;SDS011;24180;42.676;23.320;2023-07-31T09:49:12;5.22;;;4.93;;
38399;SDS011;24180;42.676;23.320;2023-07-31T09:51:40;5.18;;;4.78;;
38399;SDS011;24180;42.676;23.320;2023-07-31T09:54:13;4.65;;;4.35;;
38399;SDS011;24180;42.676;23.320;2023-07-31T09:56:43;5.30;;;5.00;;
38399;SDS011;24180;42.676;23.320;2023-07-31T09:59:11;4.53;;;4.22;;
38399;SDS011;24180;42.676;23.320;2023-07-31T10:01:42;4.80;;;4.30;;
38399;SDS011;24180;42.676;23.320;2023-07-31T10:04:11;5.10;;;3.95;;
38399;SDS011;24180;42.676;23.320;2023-07-31T10:06:37;3.97;;;3.70;;
38399;SDS011;24180;42.676;23.320;2023-07-31T10:09:05;3.97;;;3.78;;
38399;SDS011;24180;42.676;23.320;2023-07-31T10:11:37;4.40;;;3.97;;
38399;SDS011;24180;42.676;23.320;2023-07-31T10:14:05;5.70;;;4.50;;
38399;SDS011;24180;42.676;23.320;2023-07-31T10:16:32;4.40;;;3.90;;
38399;SDS011;24180;42.676;23.320;2023-07-31T10:18:59;4.30;;;4.00;;
38399;SDS011;24180;42.676;23.320;2023-07-31T10:21:25;4.38;;;4.07;;
38399;SDS011;24180;42.676;23.320;2023-07-31T10:23:51;4.43;;;4.07;;
38399;SDS011;24180;42.676;23.320;2023-07-31T10:26:17;4.55;;;4.28;;
38399;SDS011;24180;42.676;23.320;2023-07-31T10:28:44;3.92;;;3.67;;
38399;SDS011;24180;42.676;23.320;2023-07-31T10:31:11;4.53;;;4.03;;
38399;SDS011;24180;42.676;23.320;2023-07-31T10:33:38;3.80;;;3.55;;
38399;SDS011;24180;42.676;23.320;2023-07-31T10:36:14;3.53;;;3.28;;
38399;SDS011;24180;42.676;23.320;2023-07-31T10:38:42;3.75;;;3.55;;
38399;SDS011;24180;42.676;23.320;2023-07-31T10:41:09;3.50;;;3.30;;
38399;SDS011;24180;42.676;23.320;2023-07-31T10:43:35;3.40;;;3.20;;
38399;SDS011;24180;42.676;23.320;2023-07-31T10:46:07;3.88;;;3.67;;
38399;SDS011;24180;42.676;23.320;2023-07-31T10:48:39;4.03;;;3.83;;
38399;SDS011;24180;42.676;23.320;2023-07-31T10:51:10;3.80;;;3.60;;
38399;SDS011;24180;42.676;23.320;2023-07-31T10:53:37;3.75;;;3.45;;
38399;SDS011;24180;42.676;23.320;2023-07-31T10:56:08;3.88;;;3.50;;
38399;SDS011;24180;42.676;23.320;2023-07-31T10:58:36;3.45;;;3.20;;
38399;SDS011;24180;42.676;23.320;2023-07-31T11:01:02;3.55;;;3.25;;
38399;SDS011;24180;42.676;23.320;2023-07-31T11:06:17;3.58;;;3.38;;
38399;SDS011;24180;42.676;23.320;2023-07-31T11:08:47;3.53;;;3.22;;
38399;SDS011;24180;42.676;23.320;2023-07-31T11:11:14;3.00;;;2.80;;
38399;SDS011;24180;42.676;23.320;2023-07-31T11:16:18;3.53;;;3.10;;
38399;SDS011;24180;42.676;23.320;2023-07-31T11:18:45;3.28;;;3.08;;
38399;SDS011;24180;42.676;23.320;2023-07-31T11:21:13;3.65;;;3.10;;
38399;SDS011;24180;42.676;23.320;2023-07-31T11:23:39;3.90;;;3.05;;
38399;SDS011;24180;42.676;23.320;2023-07-31T11:26:05;3.40;;;3.20;;
38399;SDS011;24180;42.676;23.320;2023-07-31T11:28:32;4.25;;;3.33;;
38399;SDS011;24180;42.676;23.320;2023-07-31T11:30:59;3.83;;;3.63;;
38399;SDS011;24180;42.676;23.320;2023-07-31T11:33:25;4.35;;;3.50;;
38399;SDS011;24180;42.676;23.320;2023-07-31T11:35:51;3.38;;;3.00;;
38399;SDS011;24180;42.676;23.320;2023-07-31T11:38:23;3.63;;;2.88;;
38399;SDS011;24180;42.676;23.320;2023-07-31T11:40:53;3.70;;;3.40;;
38399;SDS011;24180;42.676;23.320;2023-07-31T11:43:22;3.50;;;3.30;;
38399;SDS011;24180;42.676;23.320;2023-07-31T11:45:49;4.28;;;3.78;;
38399;SDS011;24180;42.676;23.320;2023-07-31T11:48:23;4.07;;;3.78;;
38399;SDS011;24180;42.676;23.320;2023-07-31T11:50:53;3.30;;;3.10;;
38399;SDS011;24180;42.676;23.320;2023-07-31T11:53:33;3.88;;;3.58;;
38399;SDS011;24180;42.676;23.320;2023-07-31T11:56:02;4.50;;;3.58;;
38399;SDS011;24180;42.676;23.320;2023-07-31T11:58:30;4.20;;;3.90;;
38399;SDS011;24180;42.676;23.320;2023-07-31T12:00:56;3.50;;;3.30;;
38399;SDS011;24180;42.676;23.320;2023-07-31T12:03:23;4.07;;;3.78;;
38399;SDS011;24180;42.676;23.320;2023-07-31T12:05:49;4.78;;;4.47;;
38399;SDS011;24180;42.676;23.320;2023-07-31T12:08:14;4.80;;;4.50;;
38399;SDS011;24180;42.676;23.320;2023-07-31T12:10:41;4.30;;;4.00;;
38399;SDS011;24180;42.676;23.320;2023-07-31T12:13:10;4.82;;;4.38;;
38399;SDS011;24180;42.676;23.320;2023-07-31T12:15:41;5.68;;;5.28;;
38399;SDS011;24180;42.676;23.320;2023-07-31T12:18:10;5.32;;;4.55;;
38399;SDS011;24180;42.676;23.320;2023-07-31T12:20:44;5.18;;;4.78;;
38399;SDS011;24180;42.676;23.320;2023-07-31T12:23:18;6.55;;;6.07;;
38399;SDS011;24180;42.676;23.320;2023-07-31T12:26:06;7.22;;;6.72;;
38399;SDS011;24180;42.676;23.320;2023-07-31T12:28:47;6.32;;;5.93;;
38399;SDS011;24180;42.676;23.320;2023-07-31T12:31:17;6.25;;;5.85;;
38399;SDS011;24180;42.676;23.320;2023-07-31T12:33:49;6.03;;;5.53;;
38399;SDS011;24180;42.676;23.320;2023-07-31T12:36:16;5.60;;;5.20;;
38399;SDS011;24180;42.676;23.320;2023-07-31T12:38:43;5.47;;;4.95;;
38399;SDS011;24180;42.676;23.320;2023-07-31T12:41:09;5.35;;;5.03;;
38399;SDS011;24180;42.676;23.320;2023-07-31T12:43:36;5.72;;;5.32;;
38399;SDS011;24180;42.676;23.320;2023-07-31T12:46:03;5.78;;;5.38;;
38399;SDS011;24180;42.676;23.320;2023-07-31T12:48:28;5.55;;;5.15;;
38399;SDS011;24180;42.676;23.320;2023-07-31T12:50:54;5.55;;;5.15;;
38399;SDS011;24180;42.676;23.320;2023-07-31T12:53:20;7.22;;;6.72;;
38399;SDS011;24180;42.676;23.320;2023-07-31T12:55:45;6.47;;;6.00;;
38399;SDS011;24180;42.676;23.320;2023-07-31T12:58:11;6.60;;;6.10;;
38399;SDS011;24180;42.676;23.320;2023-07-31T13:00:36;6.60;;;6.00;;
38399;SDS011;24180;42.676;23.320;2023-07-31T13:03:03;6.80;;;6.30;;
38399;SDS011;24180;42.676;23.320;2023-07-31T13:05:28;7.03;;;6.15;;
38399;SDS011;24180;42.676;23.320;2023-07-31T13:07:54;6.63;;;6.13;;
38399;SDS011;24180;42.676;23.320;2023-07-31T13:10:19;6.70;;;6.20;;
38399;SDS011;24180;42.676;23.320;2023-07-31T13:12:45;6.38;;;5.88;;
38399;SDS011;24180;42.676;23.320;2023-07-31T13:15:11;7.10;;;6.50;;
38399;SDS011;24180;42.676;23.320;2023-07-31T13:17:37;6.68;;;6.18;;
38399;SDS011;24180;42.676;23.320;2023-07-31T13:20:03;7.25;;;6.65;;
38399;SDS011;24180;42.676;23.320;2023-07-31T13:22:29;6.55;;;5.93;;
38399;SDS011;24180;42.676;23.320;2023-07-31T13:24:54;7.70;;;7.00;;
38399;SDS011;24180;42.676;23.320;2023-07-31T13:27:20;5.90;;;5.45;;
38399;SDS011;24180;42.676;23.320;2023-07-31T13:29:46;5.55;;;5.15;;
38399;SDS011;24180;42.676;23.320;2023-07-31T13:32:15;6.10;;;5.60;;
38399;SDS011;24180;42.676;23.320;2023-07-31T13:34:41;6.03;;;5.55;;
38399;SDS011;24180;42.676;23.320;2023-07-31T13:37:07;5.13;;;4.78;;
38399;SDS011;24180;42.676;23.320;2023-07-31T13:39:32;5.53;;;5.13;;
38399;SDS011;24180;42.676;23.320;2023-07-31T13:42:04;6.18;;;5.00;;
38399;SDS011;24180;42.676;23.320;2023-07-31T13:44:34;5.07;;;4.68;;
38399;SDS011;24180;42.676;23.320;2023-07-31T13:47:00;6.28;;;5.78;;
38399;SDS011;24180;42.676;23.320;2023-07-31T13:49:27;5.65;;;5.10;;
38399;SDS011;24180;42.676;23.320;2023-07-31T13:51:52;5.68;;;5.03;;
38399;SDS011;24180;42.676;23.320;2023-07-31T13:54:18;5.10;;;4.80;;
38399;SDS011;24180;42.676;23.320;2023-07-31T13:56:43;5.50;;;5.10;;
38399;SDS011;24180;42.676;23.320;2023-07-31T13:59:09;6.10;;;5.13;;
38399;SDS011;24180;42.676;23.320;2023-07-31T14:01:35;5.57;;;5.00;;
38399;SDS011;24180;42.676;23.320;2023-07-31T14:04:00;5.35;;;4.95;;
38399;SDS011;24180;42.676;23.320;2023-07-31T14:06:26;5.30;;;5.00;;
38399;SDS011;24180;42.676;23.320;2023-07-31T14:08:51;5.60;;;5.25;;
38399;SDS011;24180;42.676;23.320;2023-07-31T14:11:17;6.10;;;5.53;;
38399;SDS011;24180;42.676;23.320;2023-07-31T14:13:42;5.40;;;5.00;;
38399;SDS011;24180;42.676;23.320;2023-07-31T14:16:08;5.30;;;4.90;;
38399;SDS011;24180;42.676;23.320;2023-07-31T14:18:33;6.75;;;5.40;;
38399;SDS011;24180;42.676;23.320;2023-07-31T14:20:59;7.20;;;5.50;;
38399;SDS011;24180;42.676;23.320;2023-07-31T14:23:24;5.47;;;5.07;;
38399;SDS011;24180;42.676;23.320;2023-07-31T14:25:50;6.25;;;5.50;;
38399;SDS011;24180;42.676;23.320;2023-07-31T14:28:15;5.88;;;5.47;;
38399;SDS011;24180;42.676;23.320;2023-07-31T14:30:40;6.20;;;5.70;;
38399;SDS011;24180;42.676;23.320;2023-07-31T14:33:06;7.13;;;6.30;;